createdAt,value
2022-08-19T00:00:16.876Z,9.60
2022-08-19T00:02:50.074Z,10.00
2022-08-19T00:05:20.066Z,9.90
2022-08-19T00:07:50.734Z,10.00
2022-08-19T00:10:24.246Z,11.18
2022-08-19T00:12:52.431Z,10.60
2022-08-19T00:15:22.271Z,10.70
2022-08-19T00:17:50.101Z,9.95
2022-08-19T00:20:22.970Z,11.25
2022-08-19T00:22:53.037Z,12.23
2022-08-19T00:25:29.924Z,9.90
2022-08-19T00:28:00.539Z,11.10
2022-08-19T00:30:30.515Z,9.98
2022-08-19T00:33:00.690Z,11.43
2022-08-19T00:35:30.344Z,10.60
2022-08-19T00:37:57.529Z,13.02
2022-08-19T00:40:26.035Z,14.02
2022-08-19T00:42:59.486Z,12.68
2022-08-19T00:45:33.159Z,13.32
2022-08-19T00:48:06.282Z,12.45
2022-08-19T00:50:52.062Z,14.23
2022-08-19T00:53:23.568Z,19.10
2022-08-19T00:55:53.770Z,16.63
2022-08-19T00:58:28.366Z,18.88
2022-08-19T01:00:55.794Z,21.30
2022-08-19T01:03:28.281Z,20.35
2022-08-19T01:05:58.240Z,24.73
2022-08-19T01:08:30.170Z,21.95
2022-08-19T01:11:01.054Z,23.02
2022-08-19T01:13:48.943Z,26.80
2022-08-19T01:16:19.692Z,27.38
2022-08-19T01:18:47.143Z,28.75
2022-08-19T01:21:32.441Z,28.38
2022-08-19T01:24:01.881Z,28.63
2022-08-19T01:26:29.266Z,29.75
2022-08-19T01:29:01.943Z,32.75
2022-08-19T01:31:32.817Z,28.88
2022-08-19T01:34:01.544Z,30.17
2022-08-19T01:36:34.000Z,33.72
2022-08-19T01:39:04.849Z,31.10
2022-08-19T01:41:35.210Z,32.17
2022-08-19T01:44:18.446Z,33.25
2022-08-19T01:46:48.779Z,34.78
2022-08-19T01:49:19.705Z,34.28
2022-08-19T01:51:47.908Z,33.92
2022-08-19T01:54:23.394Z,33.58
2022-08-19T01:57:04.017Z,34.58
2022-08-19T01:59:31.993Z,33.75
2022-08-19T02:02:01.341Z,36.50
2022-08-19T02:04:28.605Z,38.53
2022-08-19T02:06:55.858Z,31.95
2022-08-19T02:09:27.707Z,37.53
2022-08-19T02:11:59.446Z,34.05
2022-08-19T02:14:28.863Z,36.88
2022-08-19T02:16:58.190Z,36.40
2022-08-19T02:19:28.684Z,37.67
2022-08-19T02:21:55.829Z,39.65
2022-08-19T02:24:25.134Z,38.60
2022-08-19T02:26:52.569Z,34.92
2022-08-19T02:29:19.835Z,35.28
2022-08-19T02:31:52.670Z,34.30
2022-08-19T02:34:19.980Z,36.45
2022-08-19T02:36:51.914Z,32.95
2022-08-19T02:39:22.495Z,34.60
2022-08-19T02:41:50.838Z,32.88
2022-08-19T02:44:30.561Z,35.70
2022-08-19T02:47:01.137Z,33.78
2022-08-19T02:49:28.365Z,32.17
2022-08-19T02:51:57.806Z,33.13
2022-08-19T02:54:25.059Z,33.50
2022-08-19T02:56:52.337Z,30.38
2022-08-19T02:59:20.324Z,31.90
2022-08-19T03:01:53.058Z,30.25
2022-08-19T03:04:21.164Z,29.50
2022-08-19T03:06:50.608Z,28.83
2022-08-19T03:09:20.675Z,27.58
2022-08-19T03:11:52.829Z,27.38
2022-08-19T03:14:22.488Z,25.75
2022-08-19T03:16:52.240Z,26.13
2022-08-19T03:19:22.784Z,24.70
2022-08-19T03:21:50.819Z,24.77
2022-08-19T03:24:21.567Z,22.98
2022-08-19T03:26:52.277Z,24.30
2022-08-19T03:29:30.805Z,26.77
2022-08-19T03:32:06.499Z,25.05
2022-08-19T03:34:35.767Z,24.63
2022-08-19T03:37:13.123Z,23.98
2022-08-19T03:39:43.239Z,25.52
2022-08-19T03:42:32.456Z,24.83
2022-08-19T03:45:00.825Z,25.27
2022-08-19T03:47:28.049Z,24.70
2022-08-19T03:49:55.580Z,25.15
2022-08-19T03:52:25.778Z,25.38
2022-08-19T03:54:55.678Z,27.23
2022-08-19T03:57:31.855Z,23.98
2022-08-19T04:00:03.977Z,23.90
2022-08-19T04:02:56.433Z,24.67
2022-08-19T04:05:30.400Z,24.50
2022-08-19T04:07:59.897Z,24.88
2022-08-19T04:10:29.822Z,23.23
2022-08-19T04:13:01.731Z,22.85
2022-08-19T04:15:34.456Z,24.25
2022-08-19T04:18:08.716Z,22.88
2022-08-19T04:20:46.643Z,21.75
2022-08-19T04:23:19.661Z,25.40
2022-08-19T04:25:48.895Z,23.33
2022-08-19T04:28:21.760Z,25.25
2022-08-19T04:30:56.679Z,23.65
2022-08-19T04:33:28.627Z,21.70
2022-08-19T04:35:59.276Z,22.50
2022-08-19T04:38:29.183Z,24.20
2022-08-19T04:41:14.707Z,23.27
2022-08-19T04:43:42.395Z,23.88
2022-08-19T04:46:11.879Z,21.98
2022-08-19T04:49:00.702Z,21.75
2022-08-19T04:51:43.008Z,22.08
2022-08-19T04:54:10.413Z,23.30
2022-08-19T04:56:38.155Z,23.50
2022-08-19T04:59:05.460Z,22.30
2022-08-19T05:01:37.201Z,25.17
2022-08-19T05:04:10.267Z,23.40
2022-08-19T05:06:37.481Z,22.40
2022-08-19T05:09:06.127Z,24.73
2022-08-19T05:11:39.619Z,24.27
2022-08-19T05:14:10.128Z,22.40
2022-08-19T05:16:37.341Z,23.42
2022-08-19T05:19:22.934Z,23.77
2022-08-19T05:22:11.622Z,24.58
2022-08-19T05:24:51.282Z,23.90
2022-08-19T05:27:28.623Z,20.63
2022-08-19T05:29:55.843Z,23.08
2022-08-19T05:32:25.595Z,46.13
2022-08-19T05:34:55.820Z,29.38
2022-08-19T05:37:23.223Z,23.40
2022-08-19T05:39:53.474Z,19.10
2022-08-19T05:42:21.465Z,23.58
2022-08-19T05:44:53.715Z,26.23
2022-08-19T05:47:21.363Z,26.25
2022-08-19T05:49:50.714Z,23.40
2022-08-19T05:52:19.441Z,22.92
2022-08-19T05:54:53.218Z,23.25
2022-08-19T05:57:20.650Z,25.48
2022-08-19T05:59:53.210Z,24.73
2022-08-19T06:02:32.083Z,21.45
2022-08-19T06:04:59.995Z,22.85
2022-08-19T06:07:29.949Z,24.95
2022-08-19T06:10:00.847Z,25.42
2022-08-19T06:12:36.012Z,22.00
2022-08-19T06:15:09.152Z,24.75
2022-08-19T06:17:36.653Z,22.20
2022-08-19T06:20:10.544Z,23.27
2022-08-19T06:22:43.363Z,25.23
2022-08-19T06:25:15.193Z,22.45
2022-08-19T06:28:11.537Z,20.42
2022-08-19T06:30:30.624Z,22.13
2022-08-19T06:32:57.922Z,19.50
2022-08-19T06:35:28.023Z,29.60
2022-08-19T06:37:55.502Z,30.90
2022-08-19T06:40:28.422Z,21.20
2022-08-19T06:43:02.122Z,25.45
2022-08-19T06:45:33.255Z,20.35
2022-08-19T06:48:02.570Z,24.40
2022-08-19T06:50:30.557Z,20.23
2022-08-19T06:53:08.207Z,19.67
2022-08-19T06:55:38.561Z,18.00
2022-08-19T06:58:06.408Z,17.33
2022-08-19T07:00:36.329Z,19.05
2022-08-19T07:03:08.527Z,16.25
2022-08-19T07:05:40.976Z,19.58
2022-08-19T07:08:15.586Z,19.45
2022-08-19T07:10:50.867Z,21.17
2022-08-19T07:13:20.611Z,18.00
2022-08-19T07:15:51.271Z,14.43
2022-08-19T07:18:24.308Z,16.45
2022-08-19T07:21:14.925Z,16.48
2022-08-19T07:23:42.867Z,13.90
2022-08-19T07:26:39.879Z,14.80
2022-08-19T07:29:13.629Z,13.52
2022-08-19T07:31:41.176Z,13.57
2022-08-19T07:34:14.372Z,13.85
2022-08-19T07:36:44.013Z,12.88
2022-08-19T07:39:25.802Z,12.80
2022-08-19T07:41:53.750Z,8.98
2022-08-19T07:44:25.875Z,10.13
2022-08-19T07:46:57.156Z,10.70
2022-08-19T07:49:25.137Z,7.40
2022-08-19T07:52:03.259Z,9.82
2022-08-19T07:54:35.381Z,9.85
2022-08-19T07:57:03.722Z,9.38
2022-08-19T07:59:33.889Z,7.40
2022-08-19T08:02:03.786Z,10.02
2022-08-19T08:04:52.131Z,12.35
2022-08-19T08:07:40.448Z,5.85
2022-08-19T08:10:21.223Z,4.32
2022-08-19T08:13:09.491Z,3.70
2022-08-19T08:15:42.977Z,6.40
2022-08-19T08:18:13.008Z,7.43
2022-08-19T08:20:41.891Z,6.57
2022-08-19T08:23:26.236Z,6.22
2022-08-19T08:25:56.023Z,9.77
2022-08-19T08:28:29.689Z,5.35
2022-08-19T08:31:00.127Z,9.23
2022-08-19T08:33:33.511Z,6.30
2022-08-19T08:36:09.478Z,7.70
2022-08-19T08:38:42.710Z,8.13
2022-08-19T08:41:22.163Z,7.80
2022-08-19T08:43:53.937Z,12.23
2022-08-19T08:46:41.941Z,5.10
2022-08-19T08:49:34.424Z,4.75
2022-08-19T08:52:07.598Z,7.03
2022-08-19T08:54:49.036Z,6.55
2022-08-19T08:57:40.713Z,8.07
2022-08-19T09:00:16.009Z,5.75
2022-08-19T09:02:44.632Z,8.02
2022-08-19T09:05:22.299Z,7.68
2022-08-19T09:08:13.779Z,5.53
2022-08-19T09:10:55.288Z,5.47
2022-08-19T09:13:25.631Z,5.45
2022-08-19T09:16:02.443Z,5.38
2022-08-19T09:18:54.291Z,7.38
2022-08-19T09:21:33.195Z,6.00
2022-08-19T09:24:09.718Z,4.47
2022-08-19T09:26:51.817Z,4.55
2022-08-19T09:29:22.832Z,4.53
2022-08-19T09:31:52.480Z,4.25
2022-08-19T09:34:24.114Z,4.63
2022-08-19T09:36:54.833Z,11.57
2022-08-19T09:39:23.055Z,7.35
2022-08-19T09:41:50.979Z,3.85
2022-08-19T09:44:21.385Z,4.97
2022-08-19T09:46:49.256Z,4.78
2022-08-19T09:49:18.533Z,7.20
2022-08-19T09:51:51.291Z,5.82
2022-08-19T09:54:23.785Z,7.25
2022-08-19T09:56:55.730Z,3.30
2022-08-19T09:59:23.474Z,3.38
2022-08-19T10:01:51.983Z,4.35
2022-08-19T10:04:22.712Z,8.00
2022-08-19T10:06:53.722Z,4.57
2022-08-19T10:09:26.330Z,3.72
2022-08-19T10:12:03.726Z,4.50
2022-08-19T10:14:34.267Z,3.70
2022-08-19T10:17:18.035Z,3.55
2022-08-19T10:19:55.363Z,5.38
2022-08-19T10:22:23.937Z,8.02
2022-08-19T10:24:53.932Z,5.68
2022-08-19T10:27:21.601Z,5.63
2022-08-19T10:29:48.988Z,4.70
2022-08-19T10:32:18.540Z,5.40
2022-08-19T10:35:02.260Z,4.78
2022-08-19T10:37:33.779Z,4.40
2022-08-19T10:40:03.369Z,5.47
2022-08-19T10:42:32.182Z,7.00
2022-08-19T10:44:59.553Z,10.40
2022-08-19T10:47:31.823Z,5.05
2022-08-19T10:50:22.179Z,5.82
2022-08-19T10:52:58.296Z,3.92
2022-08-19T10:55:44.093Z,3.38
2022-08-19T10:58:17.757Z,3.70
2022-08-19T11:01:00.828Z,5.80
2022-08-19T11:03:31.610Z,6.43
2022-08-19T11:06:09.248Z,4.47
2022-08-19T11:08:40.334Z,6.35
2022-08-19T11:11:11.280Z,4.30
2022-08-19T11:13:43.756Z,4.10
2022-08-19T11:16:19.780Z,4.10
2022-08-19T11:18:50.830Z,3.35
2022-08-19T11:21:28.471Z,3.78
2022-08-19T11:24:01.389Z,3.05
2022-08-19T11:26:32.365Z,2.75
2022-08-19T11:29:04.759Z,2.55
2022-08-19T11:31:40.064Z,4.90
2022-08-19T11:34:09.664Z,5.43
2022-08-19T11:36:40.127Z,4.38
2022-08-19T11:39:09.178Z,5.53
2022-08-19T11:41:37.446Z,4.90
2022-08-19T11:44:05.739Z,6.60
2022-08-19T11:46:35.402Z,4.85
2022-08-19T11:49:04.104Z,7.38
2022-08-19T11:51:32.439Z,3.70
2022-08-19T11:54:08.264Z,5.28
2022-08-19T11:56:35.592Z,4.25
2022-08-19T11:59:04.913Z,5.07
2022-08-19T12:01:37.877Z,5.97
2022-08-19T12:04:07.329Z,13.85
2022-08-19T12:06:35.289Z,4.13
2022-08-19T12:09:09.253Z,6.28
2022-08-19T12:11:40.182Z,9.05
2022-08-19T12:14:14.703Z,6.55
2022-08-19T12:16:42.729Z,6.70
2022-08-19T12:19:22.520Z,6.88
2022-08-19T12:21:54.039Z,11.15
2022-08-19T12:24:24.331Z,5.90
2022-08-19T12:26:56.381Z,5.07
2022-08-19T12:29:33.539Z,7.45
2022-08-19T12:32:03.815Z,5.78
2022-08-19T12:34:33.378Z,5.97
2022-08-19T12:37:04.220Z,6.10
2022-08-19T12:39:34.992Z,6.25
2022-08-19T12:42:02.399Z,6.13
2022-08-19T12:44:32.065Z,5.65
2022-08-19T12:47:01.286Z,5.25
2022-08-19T12:49:52.708Z,5.78
2022-08-19T12:52:25.695Z,7.60
2022-08-19T12:54:56.765Z,8.85
2022-08-19T12:57:32.659Z,6.47
2022-08-19T13:00:11.457Z,5.75
2022-08-19T13:02:40.270Z,4.93
2022-08-19T13:05:14.019Z,9.02
2022-08-19T13:07:42.015Z,5.32
2022-08-19T13:10:12.739Z,4.15
2022-08-19T13:12:41.896Z,5.95
2022-08-19T13:15:12.931Z,5.53
2022-08-19T13:17:43.096Z,4.97
2022-08-19T13:20:15.085Z,4.75
2022-08-19T13:22:45.629Z,3.75
2022-08-19T13:25:13.933Z,6.45
2022-08-19T13:27:43.694Z,4.85
2022-08-19T13:30:34.534Z,8.95
2022-08-19T13:33:16.928Z,3.35
2022-08-19T13:36:01.386Z,5.55
2022-08-19T13:38:29.522Z,10.27
2022-08-19T13:40:56.810Z,6.53
2022-08-19T13:43:27.853Z,9.25
2022-08-19T13:46:01.499Z,10.50
2022-08-19T13:48:28.762Z,3.50
2022-08-19T13:50:59.575Z,3.15
2022-08-19T13:53:26.843Z,9.93
2022-08-19T13:55:56.610Z,10.80
2022-08-19T13:58:23.846Z,6.43
2022-08-19T14:00:53.521Z,7.22
2022-08-19T14:03:23.286Z,4.10
2022-08-19T14:05:50.641Z,2.72
2022-08-19T14:08:20.762Z,3.13
2022-08-19T14:10:50.364Z,8.68
2022-08-19T14:13:23.307Z,11.68
2022-08-19T14:15:53.136Z,4.93
2022-08-19T14:18:20.457Z,3.45
2022-08-19T14:20:47.990Z,2.58
2022-08-19T14:23:17.341Z,3.10
2022-08-19T14:25:45.463Z,3.35
2022-08-19T14:28:17.933Z,2.65
2022-08-19T14:30:47.382Z,9.57
2022-08-19T14:33:16.851Z,3.38
2022-08-19T14:35:46.100Z,4.28
2022-08-19T14:38:28.183Z,6.07
2022-08-19T14:41:20.406Z,5.20
2022-08-19T14:43:54.750Z,8.73
2022-08-19T14:46:28.159Z,4.22
2022-08-19T14:49:01.582Z,2.92
2022-08-19T14:51:36.702Z,4.38
2022-08-19T14:54:06.300Z,1.58
2022-08-19T14:56:33.765Z,8.30
2022-08-19T14:59:01.993Z,2.88
2022-08-19T15:01:30.526Z,5.18
2022-08-19T15:03:59.923Z,10.93
2022-08-19T15:06:32.922Z,6.55
2022-08-19T15:09:04.512Z,5.88
2022-08-19T15:11:33.380Z,2.40
2022-08-19T15:14:06.463Z,8.98
2022-08-19T15:16:33.829Z,2.53
2022-08-19T15:19:03.430Z,1.73
2022-08-19T15:21:31.036Z,3.45
2022-08-19T15:24:01.986Z,10.18
2022-08-19T15:26:33.161Z,9.98
2022-08-19T15:29:02.141Z,6.85
2022-08-19T15:31:37.959Z,4.32
2022-08-19T15:34:07.736Z,2.33
2022-08-19T15:36:40.093Z,3.00
2022-08-19T15:39:07.502Z,2.35
2022-08-19T15:41:38.153Z,2.80
2022-08-19T15:44:12.433Z,0.50
2022-08-19T15:46:42.440Z,1.50
2022-08-19T15:49:13.964Z,0.50
2022-08-19T15:51:46.182Z,0.90
2022-08-19T15:54:18.301Z,3.15
2022-08-19T15:57:07.681Z,0.63
2022-08-19T15:59:55.099Z,0.40
2022-08-19T16:02:46.219Z,0.75
2022-08-19T16:05:39.588Z,0.77
2022-08-19T16:08:11.887Z,0.63
2022-08-19T16:10:41.868Z,0.55
2022-08-19T16:13:10.608Z,1.00
2022-08-19T16:15:37.875Z,0.80
2022-08-19T16:18:05.195Z,0.30
2022-08-19T16:20:35.613Z,1.02
2022-08-19T16:23:04.844Z,0.47
2022-08-19T16:25:34.593Z,1.98
2022-08-19T16:28:07.023Z,2.13
2022-08-19T16:30:42.902Z,0.98
2022-08-19T16:33:22.926Z,1.23
2022-08-19T16:36:00.128Z,1.00
2022-08-19T16:38:30.393Z,1.00
2022-08-19T16:41:01.448Z,1.00
2022-08-19T16:43:31.329Z,0.50
2022-08-19T16:45:59.048Z,0.77
2022-08-19T16:48:30.406Z,1.25
2022-08-19T16:51:09.415Z,1.20
2022-08-19T16:53:38.328Z,0.68
2022-08-19T16:56:09.604Z,3.17
2022-08-19T16:58:36.966Z,0.45
2022-08-19T17:01:06.941Z,1.00
2022-08-19T17:03:37.559Z,0.82
2022-08-19T17:06:18.528Z,2.50
2022-08-19T17:08:50.409Z,1.65
2022-08-19T17:11:19.782Z,2.08
2022-08-19T17:13:48.487Z,2.05
2022-08-19T17:16:22.306Z,1.73
2022-08-19T17:18:52.326Z,1.63
2022-08-19T17:21:27.505Z,1.40
2022-08-19T17:23:57.715Z,0.90
2022-08-19T17:26:27.946Z,1.10
2022-08-19T17:28:59.163Z,1.58
2022-08-19T17:31:32.677Z,1.40
2022-08-19T17:34:00.511Z,1.40
2022-08-19T17:36:29.870Z,1.08
2022-08-19T17:38:59.537Z,2.85
2022-08-19T17:41:28.763Z,2.15
2022-08-19T17:44:00.462Z,1.60
2022-08-19T17:46:30.065Z,1.77
2022-08-19T17:48:57.923Z,1.85
2022-08-19T17:51:34.088Z,1.40
2022-08-19T17:54:04.430Z,1.10
2022-08-19T17:56:31.733Z,1.52
2022-08-19T17:59:01.791Z,1.38
2022-08-19T18:01:43.878Z,1.55
2022-08-19T18:04:22.178Z,1.98
2022-08-19T18:06:54.327Z,3.88
2022-08-19T18:09:30.147Z,2.05
2022-08-19T18:12:09.860Z,1.20
2022-08-19T18:14:41.646Z,2.70
2022-08-19T18:17:17.925Z,3.15
2022-08-19T18:19:47.184Z,4.57
2022-08-19T18:22:33.783Z,2.88
2022-08-19T18:25:04.604Z,3.53
2022-08-19T18:27:35.184Z,2.90
2022-08-19T18:30:08.569Z,2.92
2022-08-19T18:32:38.683Z,3.80
2022-08-19T18:35:11.164Z,2.97
2022-08-19T18:37:42.827Z,3.38
2022-08-19T18:40:32.248Z,2.95
2022-08-19T18:43:04.342Z,2.85
2022-08-19T18:45:56.240Z,4.28
2022-08-19T18:48:42.076Z,2.72
2022-08-19T18:51:09.771Z,1.60
2022-08-19T18:53:41.020Z,1.23
2022-08-19T18:56:11.055Z,2.45
2022-08-19T18:58:39.626Z,1.95
2022-08-19T19:01:15.686Z,2.50
2022-08-19T19:03:50.368Z,2.35
2022-08-19T19:06:23.150Z,2.13
2022-08-19T19:08:54.925Z,2.15
2022-08-19T19:11:28.884Z,2.58
2022-08-19T19:14:01.953Z,1.65
2022-08-19T19:16:32.393Z,3.20
2022-08-19T19:19:02.079Z,4.30
2022-08-19T19:21:34.062Z,2.45
2022-08-19T19:24:04.374Z,3.65
2022-08-19T19:26:31.639Z,2.65
2022-08-19T19:28:59.825Z,2.13
2022-08-19T19:31:27.228Z,2.50
2022-08-19T19:33:57.083Z,2.97
2022-08-19T19:36:26.731Z,2.45
2022-08-19T19:38:53.954Z,4.18
2022-08-19T19:41:26.496Z,1.98
2022-08-19T19:44:23.261Z,3.40
2022-08-19T19:46:43.303Z,3.17
2022-08-19T19:49:10.996Z,3.78
2022-08-19T19:51:39.464Z,2.63
2022-08-19T19:54:18.679Z,3.22
2022-08-19T19:56:53.904Z,3.03
2022-08-19T19:59:24.190Z,2.10
2022-08-19T20:01:51.497Z,2.25
2022-08-19T20:04:22.362Z,4.55
2022-08-19T20:06:51.630Z,3.47
2022-08-19T20:09:39.114Z,3.05
2022-08-19T20:12:16.765Z,4.28
2022-08-19T20:14:46.800Z,2.30
2022-08-19T20:17:14.617Z,2.72
2022-08-19T20:19:44.617Z,3.13
2022-08-19T20:22:16.844Z,4.97
2022-08-19T20:24:44.864Z,3.75
2022-08-19T20:27:12.076Z,4.20
2022-08-19T20:29:44.313Z,3.50
2022-08-19T20:32:12.971Z,1.60
2022-08-19T20:34:41.064Z,3.95
2022-08-19T20:37:11.312Z,1.88
2022-08-19T20:39:38.607Z,3.10
2022-08-19T20:42:08.502Z,2.13
2022-08-19T20:44:35.728Z,2.08
2022-08-19T20:47:05.406Z,2.40
2022-08-19T20:49:32.931Z,2.15
2022-08-19T20:52:00.353Z,2.28
2022-08-19T20:54:30.823Z,1.85
2022-08-19T20:57:03.779Z,2.25
2022-08-19T20:59:33.475Z,3.97
2022-08-19T21:02:02.965Z,2.58
2022-08-19T21:04:34.645Z,1.50
2022-08-19T21:07:02.310Z,2.95
2022-08-19T21:09:29.459Z,3.10
2022-08-19T21:11:59.164Z,1.80
2022-08-19T21:14:31.121Z,2.05
2022-08-19T21:16:58.369Z,3.10
2022-08-19T21:19:30.131Z,3.40
2022-08-19T21:21:59.450Z,3.17
2022-08-19T21:24:30.003Z,3.25
2022-08-19T21:26:58.981Z,3.20
2022-08-19T21:29:26.199Z,2.28
2022-08-19T21:31:53.329Z,2.38
2022-08-19T21:34:22.794Z,4.30
2022-08-19T21:36:50.034Z,1.70
2022-08-19T21:39:21.586Z,1.75
2022-08-19T21:41:48.864Z,1.30
2022-08-19T21:44:18.490Z,1.50
2022-08-19T21:46:45.709Z,1.85
2022-08-19T21:49:20.426Z,2.38
2022-08-19T21:51:50.147Z,3.20
2022-08-19T21:54:17.304Z,4.43
2022-08-19T21:56:44.500Z,1.70
2022-08-19T21:59:11.851Z,1.75
2022-08-19T22:01:39.141Z,1.48
2022-08-19T22:04:06.393Z,4.63
2022-08-19T22:06:33.590Z,1.42
2022-08-19T22:09:00.789Z,1.73
2022-08-19T22:11:30.638Z,2.03
2022-08-19T22:13:59.923Z,4.00
2022-08-19T22:16:33.315Z,2.45
2022-08-19T22:19:02.783Z,1.92
2022-08-19T22:21:40.374Z,2.83
2022-08-19T22:24:11.107Z,3.65
2022-08-19T22:26:38.386Z,3.53
2022-08-19T22:29:08.302Z,2.58
2022-08-19T22:31:37.726Z,2.80
2022-08-19T22:34:05.928Z,1.63
2022-08-19T22:36:33.343Z,2.22
2022-08-19T22:39:00.690Z,2.38
2022-08-19T22:41:30.958Z,2.80
2022-08-19T22:44:02.466Z,1.95
2022-08-19T22:46:34.268Z,5.25
2022-08-19T22:49:01.730Z,3.20
2022-08-19T22:51:48.142Z,2.17
2022-08-19T22:54:15.937Z,2.22
2022-08-19T22:56:43.511Z,3.10
2022-08-19T22:59:15.497Z,2.42
2022-08-19T23:01:46.318Z,2.55
2022-08-19T23:04:13.601Z,3.72
2022-08-19T23:06:45.495Z,2.50
2022-08-19T23:09:17.210Z,3.00
2022-08-19T23:11:50.892Z,3.20
2022-08-19T23:14:18.497Z,2.30
2022-08-19T23:16:50.724Z,2.80
2022-08-19T23:19:21.105Z,2.88
2022-08-19T23:21:48.525Z,2.65
2022-08-19T23:24:15.798Z,4.65
2022-08-19T23:27:03.009Z,2.60
2022-08-19T23:29:49.514Z,3.25
2022-08-19T23:32:20.747Z,2.45
2022-08-19T23:34:50.078Z,2.35
2022-08-19T23:37:17.668Z,3.25
2022-08-19T23:39:49.473Z,3.90
2022-08-19T23:42:16.760Z,2.83
2022-08-19T23:44:51.327Z,2.42
2022-08-19T23:47:22.119Z,4.38
2022-08-19T23:49:49.731Z,4.68
2022-08-19T23:52:19.810Z,4.13
2022-08-19T23:54:49.441Z,4.43
2022-08-19T23:57:16.889Z,4.57
2022-08-19T23:59:46.809Z,3.90
